sensor_id;sensor_type;location;lat;lon;timestamp;P1;durP1;ratioP1;P2;durP2;ratioP2
54945;SDS011;40846;44.788;20.486;2024-02-16T00:01:23;110.45;;;51.90;;
54945;SDS011;40846;44.788;20.486;2024-02-16T00:03:49;112.47;;;51.88;;
54945;SDS011;40846;44.788;20.486;2024-02-16T00:06:16;116.47;;;55.50;;
54945;SDS011;40846;44.788;20.486;2024-02-16T00:08:42;123.20;;;56.15;;
54945;SDS011;40846;44.788;20.486;2024-02-16T00:11:08;122.03;;;58.63;;
54945;SDS011;40846;44.788;20.486;2024-02-16T00:13:34;149.63;;;67.05;;
54945;SDS011;40846;44.788;20.486;2024-02-16T00:16:01;151.20;;;70.15;;
54945;SDS011;40846;44.788;20.486;2024-02-16T00:18:27;171.45;;;78.97;;
54945;SDS011;40846;44.788;20.486;2024-02-16T00:20:53;139.70;;;70.10;;
54945;SDS011;40846;44.788;20.486;2024-02-16T00:23:19;151.10;;;68.25;;
54945;SDS011;40846;44.788;20.486;2024-02-16T00:25:47;123.22;;;56.83;;
54945;SDS011;40846;44.788;20.486;2024-02-16T00:28:13;134.48;;;64.60;;
54945;SDS011;40846;44.788;20.486;2024-02-16T00:30:39;175.07;;;79.28;;
54945;SDS011;40846;44.788;20.486;2024-02-16T00:33:06;384.08;;;143.15;;
54945;SDS011;40846;44.788;20.486;2024-02-16T00:35:32;188.88;;;84.45;;
54945;SDS011;40846;44.788;20.486;2024-02-16T00:38:01;147.57;;;70.22;;
54945;SDS011;40846;44.788;20.486;2024-02-16T00:40:27;220.40;;;92.88;;
54945;SDS011;40846;44.788;20.486;2024-02-16T00:42:53;165.45;;;75.22;;
54945;SDS011;40846;44.788;20.486;2024-02-16T00:45:19;158.65;;;70.60;;
54945;SDS011;40846;44.788;20.486;2024-02-16T00:47:45;133.05;;;62.28;;
54945;SDS011;40846;44.788;20.486;2024-02-16T00:50:13;144.50;;;66.93;;
54945;SDS011;40846;44.788;20.486;2024-02-16T00:52:39;127.80;;;62.08;;
54945;SDS011;40846;44.788;20.486;2024-02-16T00:55:05;118.20;;;54.25;;
54945;SDS011;40846;44.788;20.486;2024-02-16T00:57:31;131.25;;;58.40;;
54945;SDS011;40846;44.788;20.486;2024-02-16T00:59:59;115.82;;;55.85;;
54945;SDS011;40846;44.788;20.486;2024-02-16T01:02:25;107.47;;;52.33;;
54945;SDS011;40846;44.788;20.486;2024-02-16T01:04:51;94.93;;;49.55;;
54945;SDS011;40846;44.788;20.486;2024-02-16T01:07:19;101.13;;;46.38;;
54945;SDS011;40846;44.788;20.486;2024-02-16T01:09:45;109.15;;;50.25;;
54945;SDS011;40846;44.788;20.486;2024-02-16T01:12:13;120.18;;;54.72;;
54945;SDS011;40846;44.788;20.486;2024-02-16T01:14:39;219.32;;;84.63;;
54945;SDS011;40846;44.788;20.486;2024-02-16T01:17:05;212.05;;;83.57;;
54945;SDS011;40846;44.788;20.486;2024-02-16T01:19:31;106.07;;;50.40;;
54945;SDS011;40846;44.788;20.486;2024-02-16T01:21:58;112.88;;;49.47;;
54945;SDS011;40846;44.788;20.486;2024-02-16T01:24:25;85.60;;;42.88;;
54945;SDS011;40846;44.788;20.486;2024-02-16T01:26:51;88.35;;;42.45;;
54945;SDS011;40846;44.788;20.486;2024-02-16T01:29:18;85.28;;;43.97;;
54945;SDS011;40846;44.788;20.486;2024-02-16T01:31:44;88.78;;;44.40;;
54945;SDS011;40846;44.788;20.486;2024-02-16T01:34:10;88.40;;;44.97;;
54945;SDS011;40846;44.788;20.486;2024-02-16T01:36:36;99.90;;;46.20;;
54945;SDS011;40846;44.788;20.486;2024-02-16T01:39:02;81.30;;;40.53;;
54945;SDS011;40846;44.788;20.486;2024-02-16T01:41:28;69.88;;;36.08;;
54945;SDS011;40846;44.788;20.486;2024-02-16T01:43:54;73.43;;;36.15;;
54945;SDS011;40846;44.788;20.486;2024-02-16T01:46:20;67.63;;;37.05;;
54945;SDS011;40846;44.788;20.486;2024-02-16T01:48:47;73.22;;;36.92;;
54945;SDS011;40846;44.788;20.486;2024-02-16T01:51:15;74.60;;;38.17;;
54945;SDS011;40846;44.788;20.486;2024-02-16T01:53:41;72.50;;;36.58;;
54945;SDS011;40846;44.788;20.486;2024-02-16T01:56:08;75.35;;;37.80;;
54945;SDS011;40846;44.788;20.486;2024-02-16T01:58:34;75.07;;;38.78;;
54945;SDS011;40846;44.788;20.486;2024-02-16T02:01:00;83.65;;;39.47;;
54945;SDS011;40846;44.788;20.486;2024-02-16T02:03:26;72.68;;;37.38;;
54945;SDS011;40846;44.788;20.486;2024-02-16T02:05:52;80.65;;;37.67;;
54945;SDS011;40846;44.788;20.486;2024-02-16T02:08:21;78.57;;;40.30;;
54945;SDS011;40846;44.788;20.486;2024-02-16T02:10:47;75.55;;;39.00;;
54945;SDS011;40846;44.788;20.486;2024-02-16T02:13:14;72.82;;;37.03;;
54945;SDS011;40846;44.788;20.486;2024-02-16T02:15:40;76.00;;;38.05;;
54945;SDS011;40846;44.788;20.486;2024-02-16T02:18:06;74.05;;;36.85;;
54945;SDS011;40846;44.788;20.486;2024-02-16T02:20:32;74.05;;;37.05;;
54945;SDS011;40846;44.788;20.486;2024-02-16T02:22:59;75.82;;;36.42;;
54945;SDS011;40846;44.788;20.486;2024-02-16T02:25:25;100.55;;;44.30;;
54945;SDS011;40846;44.788;20.486;2024-02-16T02:27:53;165.48;;;66.22;;
54945;SDS011;40846;44.788;20.486;2024-02-16T02:30:20;260.00;;;95.70;;
54945;SDS011;40846;44.788;20.486;2024-02-16T02:32:46;248.90;;;93.22;;
54945;SDS011;40846;44.788;20.486;2024-02-16T02:35:14;146.98;;;62.17;;
54945;SDS011;40846;44.788;20.486;2024-02-16T02:37:40;123.88;;;52.20;;
54945;SDS011;40846;44.788;20.486;2024-02-16T02:40:07;104.53;;;45.40;;
54945;SDS011;40846;44.788;20.486;2024-02-16T02:42:34;88.40;;;39.15;;
54945;SDS011;40846;44.788;20.486;2024-02-16T02:45:00;79.20;;;36.45;;
54945;SDS011;40846;44.788;20.486;2024-02-16T02:47:26;81.20;;;35.88;;
54945;SDS011;40846;44.788;20.486;2024-02-16T02:49:52;65.93;;;33.30;;
54945;SDS011;40846;44.788;20.486;2024-02-16T02:52:17;70.45;;;32.28;;
54945;SDS011;40846;44.788;20.486;2024-02-16T02:54:43;67.90;;;35.33;;
54945;SDS011;40846;44.788;20.486;2024-02-16T02:57:09;61.65;;;30.77;;
54945;SDS011;40846;44.788;20.486;2024-02-16T02:59:35;68.28;;;32.78;;
54945;SDS011;40846;44.788;20.486;2024-02-16T03:02:01;68.32;;;32.63;;
54945;SDS011;40846;44.788;20.486;2024-02-16T03:04:26;73.15;;;33.20;;
54945;SDS011;40846;44.788;20.486;2024-02-16T03:06:52;62.78;;;31.25;;
54945;SDS011;40846;44.788;20.486;2024-02-16T03:09:18;64.25;;;31.80;;
54945;SDS011;40846;44.788;20.486;2024-02-16T03:11:44;65.93;;;30.77;;
54945;SDS011;40846;44.788;20.486;2024-02-16T03:14:10;59.58;;;28.48;;
54945;SDS011;40846;44.788;20.486;2024-02-16T03:16:36;58.58;;;27.88;;
54945;SDS011;40846;44.788;20.486;2024-02-16T03:19:04;57.63;;;28.98;;
54945;SDS011;40846;44.788;20.486;2024-02-16T03:21:31;48.72;;;26.15;;
54945;SDS011;40846;44.788;20.486;2024-02-16T03:23:57;67.50;;;30.77;;
54945;SDS011;40846;44.788;20.486;2024-02-16T03:26:23;125.05;;;54.70;;
54945;SDS011;40846;44.788;20.486;2024-02-16T03:28:49;72.50;;;31.80;;
54945;SDS011;40846;44.788;20.486;2024-02-16T03:31:19;62.65;;;29.73;;
54945;SDS011;40846;44.788;20.486;2024-02-16T03:33:46;47.42;;;25.00;;
54945;SDS011;40846;44.788;20.486;2024-02-16T03:36:12;50.42;;;24.58;;
54945;SDS011;40846;44.788;20.486;2024-02-16T03:38:42;121.80;;;67.22;;
54945;SDS011;40846;44.788;20.486;2024-02-16T03:41:17;327.15;;;180.23;;
54945;SDS011;40846;44.788;20.486;2024-02-16T03:43:43;175.65;;;98.10;;
54945;SDS011;40846;44.788;20.486;2024-02-16T03:46:10;57.08;;;27.73;;
54945;SDS011;40846;44.788;20.486;2024-02-16T03:48:36;50.63;;;24.98;;
54945;SDS011;40846;44.788;20.486;2024-02-16T03:51:02;87.60;;;46.15;;
54945;SDS011;40846;44.788;20.486;2024-02-16T03:53:28;88.07;;;47.08;;
54945;SDS011;40846;44.788;20.486;2024-02-16T03:55:54;48.03;;;26.25;;
54945;SDS011;40846;44.788;20.486;2024-02-16T03:58:21;46.95;;;23.83;;
54945;SDS011;40846;44.788;20.486;2024-02-16T04:00:47;49.13;;;24.67;;
54945;SDS011;40846;44.788;20.486;2024-02-16T04:03:18;42.22;;;23.92;;
54945;SDS011;40846;44.788;20.486;2024-02-16T04:05:44;47.30;;;23.23;;
54945;SDS011;40846;44.788;20.486;2024-02-16T04:08:10;59.88;;;32.17;;
54945;SDS011;40846;44.788;20.486;2024-02-16T04:10:36;77.65;;;38.45;;
54945;SDS011;40846;44.788;20.486;2024-02-16T04:13:02;77.78;;;43.60;;
54945;SDS011;40846;44.788;20.486;2024-02-16T04:15:29;64.32;;;34.72;;
54945;SDS011;40846;44.788;20.486;2024-02-16T04:17:55;65.68;;;34.03;;
54945;SDS011;40846;44.788;20.486;2024-02-16T04:20:21;68.10;;;36.85;;
54945;SDS011;40846;44.788;20.486;2024-02-16T04:22:47;69.82;;;36.47;;
54945;SDS011;40846;44.788;20.486;2024-02-16T04:25:13;43.22;;;22.80;;
54945;SDS011;40846;44.788;20.486;2024-02-16T04:27:40;44.60;;;21.35;;
54945;SDS011;40846;44.788;20.486;2024-02-16T04:30:06;38.83;;;20.27;;
54945;SDS011;40846;44.788;20.486;2024-02-16T04:32:32;37.13;;;19.13;;
54945;SDS011;40846;44.788;20.486;2024-02-16T04:34:58;34.95;;;18.92;;
54945;SDS011;40846;44.788;20.486;2024-02-16T04:37:25;31.77;;;17.85;;
54945;SDS011;40846;44.788;20.486;2024-02-16T04:39:51;36.05;;;16.63;;
54945;SDS011;40846;44.788;20.486;2024-02-16T04:42:17;36.15;;;18.70;;
54945;SDS011;40846;44.788;20.486;2024-02-16T04:44:43;34.65;;;19.30;;
54945;SDS011;40846;44.788;20.486;2024-02-16T04:47:10;31.52;;;17.95;;
54945;SDS011;40846;44.788;20.486;2024-02-16T04:49:36;41.03;;;22.38;;
54945;SDS011;40846;44.788;20.486;2024-02-16T04:52:02;37.92;;;21.80;;
54945;SDS011;40846;44.788;20.486;2024-02-16T04:54:29;47.05;;;23.40;;
54945;SDS011;40846;44.788;20.486;2024-02-16T04:56:55;44.55;;;22.42;;
54945;SDS011;40846;44.788;20.486;2024-02-16T04:59:21;42.35;;;20.13;;
54945;SDS011;40846;44.788;20.486;2024-02-16T05:01:47;41.30;;;20.92;;
54945;SDS011;40846;44.788;20.486;2024-02-16T05:04:13;30.70;;;18.52;;
54945;SDS011;40846;44.788;20.486;2024-02-16T05:06:44;47.20;;;20.35;;
54945;SDS011;40846;44.788;20.486;2024-02-16T05:09:11;31.20;;;18.75;;
54945;SDS011;40846;44.788;20.486;2024-02-16T05:11:41;41.13;;;20.95;;
54945;SDS011;40846;44.788;20.486;2024-02-16T05:14:07;38.95;;;20.13;;
54945;SDS011;40846;44.788;20.486;2024-02-16T05:16:34;36.67;;;19.67;;
54945;SDS011;40846;44.788;20.486;2024-02-16T05:19:00;35.63;;;18.65;;
54945;SDS011;40846;44.788;20.486;2024-02-16T05:21:26;39.75;;;18.15;;
54945;SDS011;40846;44.788;20.486;2024-02-16T05:23:52;31.67;;;16.77;;
54945;SDS011;40846;44.788;20.486;2024-02-16T05:26:18;30.30;;;15.88;;
54945;SDS011;40846;44.788;20.486;2024-02-16T05:28:45;29.35;;;15.00;;
54945;SDS011;40846;44.788;20.486;2024-02-16T05:31:15;23.60;;;14.07;;
54945;SDS011;40846;44.788;20.486;2024-02-16T05:33:47;28.52;;;14.02;;
54945;SDS011;40846;44.788;20.486;2024-02-16T05:36:16;26.92;;;14.07;;
54945;SDS011;40846;44.788;20.486;2024-02-16T05:38:43;24.23;;;14.52;;
54945;SDS011;40846;44.788;20.486;2024-02-16T05:41:09;30.95;;;15.40;;
54945;SDS011;40846;44.788;20.486;2024-02-16T05:43:36;34.42;;;17.75;;
54945;SDS011;40846;44.788;20.486;2024-02-16T05:46:05;40.28;;;19.60;;
54945;SDS011;40846;44.788;20.486;2024-02-16T05:48:35;41.05;;;21.05;;
54945;SDS011;40846;44.788;20.486;2024-02-16T05:51:05;45.65;;;22.80;;
54945;SDS011;40846;44.788;20.486;2024-02-16T05:53:32;53.00;;;23.65;;
54945;SDS011;40846;44.788;20.486;2024-02-16T05:55:58;53.85;;;22.67;;
54945;SDS011;40846;44.788;20.486;2024-02-16T05:58:25;35.55;;;20.63;;
54945;SDS011;40846;44.788;20.486;2024-02-16T06:00:51;40.78;;;19.60;;
54945;SDS011;40846;44.788;20.486;2024-02-16T06:03:17;42.63;;;22.60;;
54945;SDS011;40846;44.788;20.486;2024-02-16T06:05:43;51.22;;;23.23;;
54945;SDS011;40846;44.788;20.486;2024-02-16T06:08:11;46.38;;;22.27;;
54945;SDS011;40846;44.788;20.486;2024-02-16T06:10:37;36.22;;;18.90;;
54945;SDS011;40846;44.788;20.486;2024-02-16T06:13:03;35.90;;;16.15;;
54945;SDS011;40846;44.788;20.486;2024-02-16T06:15:29;60.25;;;28.83;;
54945;SDS011;40846;44.788;20.486;2024-02-16T06:17:55;44.45;;;22.05;;
54945;SDS011;40846;44.788;20.486;2024-02-16T06:20:21;57.47;;;27.55;;
54945;SDS011;40846;44.788;20.486;2024-02-16T06:22:47;47.45;;;22.92;;
54945;SDS011;40846;44.788;20.486;2024-02-16T06:25:13;39.22;;;19.83;;
54945;SDS011;40846;44.788;20.486;2024-02-16T06:27:40;34.53;;;18.83;;
54945;SDS011;40846;44.788;20.486;2024-02-16T06:30:06;30.67;;;16.40;;
54945;SDS011;40846;44.788;20.486;2024-02-16T06:32:37;34.30;;;16.15;;
54945;SDS011;40846;44.788;20.486;2024-02-16T06:35:03;40.33;;;18.05;;
54945;SDS011;40846;44.788;20.486;2024-02-16T06:37:29;35.95;;;16.35;;
54945;SDS011;40846;44.788;20.486;2024-02-16T06:39:57;34.20;;;17.35;;
54945;SDS011;40846;44.788;20.486;2024-02-16T06:42:23;38.50;;;17.63;;
54945;SDS011;40846;44.788;20.486;2024-02-16T06:44:49;40.85;;;18.42;;
54945;SDS011;40846;44.788;20.486;2024-02-16T06:47:15;46.90;;;17.50;;
54945;SDS011;40846;44.788;20.486;2024-02-16T06:49:41;35.33;;;17.67;;
54945;SDS011;40846;44.788;20.486;2024-02-16T06:52:08;39.15;;;18.25;;
54945;SDS011;40846;44.788;20.486;2024-02-16T06:54:35;41.47;;;19.02;;
54945;SDS011;40846;44.788;20.486;2024-02-16T06:57:01;41.92;;;18.92;;
54945;SDS011;40846;44.788;20.486;2024-02-16T06:59:27;39.80;;;18.90;;
54945;SDS011;40846;44.788;20.486;2024-02-16T07:01:54;43.22;;;21.38;;
54945;SDS011;40846;44.788;20.486;2024-02-16T07:04:20;41.13;;;21.17;;
54945;SDS011;40846;44.788;20.486;2024-02-16T07:06:46;45.05;;;21.35;;
54945;SDS011;40846;44.788;20.486;2024-02-16T07:09:12;40.10;;;20.17;;
54945;SDS011;40846;44.788;20.486;2024-02-16T07:11:41;40.28;;;18.20;;
54945;SDS011;40846;44.788;20.486;2024-02-16T07:14:08;32.75;;;18.20;;
54945;SDS011;40846;44.788;20.486;2024-02-16T07:16:34;34.03;;;17.42;;
54945;SDS011;40846;44.788;20.486;2024-02-16T07:19:00;36.08;;;19.05;;
54945;SDS011;40846;44.788;20.486;2024-02-16T07:21:25;37.00;;;18.67;;
54945;SDS011;40846;44.788;20.486;2024-02-16T07:23:54;41.10;;;18.13;;
54945;SDS011;40846;44.788;20.486;2024-02-16T07:26:20;36.95;;;19.25;;
54945;SDS011;40846;44.788;20.486;2024-02-16T07:28:47;47.75;;;21.95;;
54945;SDS011;40846;44.788;20.486;2024-02-16T07:31:12;41.60;;;21.02;;
54945;SDS011;40846;44.788;20.486;2024-02-16T07:33:39;42.33;;;21.55;;
54945;SDS011;40846;44.788;20.486;2024-02-16T07:36:05;42.13;;;21.80;;
54945;SDS011;40846;44.788;20.486;2024-02-16T07:38:31;41.90;;;20.30;;
54945;SDS011;40846;44.788;20.486;2024-02-16T07:40:57;38.75;;;21.05;;
54945;SDS011;40846;44.788;20.486;2024-02-16T07:43:24;43.10;;;22.95;;
54945;SDS011;40846;44.788;20.486;2024-02-16T07:45:50;47.45;;;23.73;;
54945;SDS011;40846;44.788;20.486;2024-02-16T07:48:19;45.63;;;23.65;;
54945;SDS011;40846;44.788;20.486;2024-02-16T07:50:46;51.15;;;22.90;;
54945;SDS011;40846;44.788;20.486;2024-02-16T07:53:12;46.42;;;21.77;;
54945;SDS011;40846;44.788;20.486;2024-02-16T07:55:39;41.85;;;19.67;;
54945;SDS011;40846;44.788;20.486;2024-02-16T07:58:04;42.53;;;20.58;;
54945;SDS011;40846;44.788;20.486;2024-02-16T08:00:30;39.83;;;19.40;;
54945;SDS011;40846;44.788;20.486;2024-02-16T08:02:56;40.85;;;19.90;;
54945;SDS011;40846;44.788;20.486;2024-02-16T08:05:22;40.45;;;20.95;;
54945;SDS011;40846;44.788;20.486;2024-02-16T08:07:49;34.03;;;17.60;;
54945;SDS011;40846;44.788;20.486;2024-02-16T08:10:18;37.10;;;19.20;;
54945;SDS011;40846;44.788;20.486;2024-02-16T08:12:45;36.10;;;18.85;;
54945;SDS011;40846;44.788;20.486;2024-02-16T08:15:12;36.88;;;19.40;;
54945;SDS011;40846;44.788;20.486;2024-02-16T08:17:38;31.48;;;17.17;;
54945;SDS011;40846;44.788;20.486;2024-02-16T08:20:05;29.27;;;17.25;;
54945;SDS011;40846;44.788;20.486;2024-02-16T08:22:31;37.33;;;20.17;;
54945;SDS011;40846;44.788;20.486;2024-02-16T08:25:01;33.58;;;21.00;;
54945;SDS011;40846;44.788;20.486;2024-02-16T08:27:27;33.97;;;20.05;;
54945;SDS011;40846;44.788;20.486;2024-02-16T08:29:53;37.80;;;22.63;;
54945;SDS011;40846;44.788;20.486;2024-02-16T08:32:19;39.55;;;22.20;;
54945;SDS011;40846;44.788;20.486;2024-02-16T08:34:46;31.23;;;20.48;;
54945;SDS011;40846;44.788;20.486;2024-02-16T08:37:15;31.45;;;21.23;;
54945;SDS011;40846;44.788;20.486;2024-02-16T08:39:41;37.20;;;22.70;;
54945;SDS011;40846;44.788;20.486;2024-02-16T08:42:07;32.97;;;23.52;;
54945;SDS011;40846;44.788;20.486;2024-02-16T08:44:39;33.88;;;22.58;;
54945;SDS011;40846;44.788;20.486;2024-02-16T08:47:06;31.85;;;22.30;;
54945;SDS011;40846;44.788;20.486;2024-02-16T08:49:32;33.00;;;21.30;;
54945;SDS011;40846;44.788;20.486;2024-02-16T08:51:59;29.77;;;22.15;;
54945;SDS011;40846;44.788;20.486;2024-02-16T08:54:25;28.10;;;20.83;;
54945;SDS011;40846;44.788;20.486;2024-02-16T08:56:51;28.95;;;21.88;;
54945;SDS011;40846;44.788;20.486;2024-02-16T08:59:18;29.83;;;21.33;;
54945;SDS011;40846;44.788;20.486;2024-02-16T09:01:44;34.33;;;22.70;;
54945;SDS011;40846;44.788;20.486;2024-02-16T09:04:10;27.63;;;19.52;;
54945;SDS011;40846;44.788;20.486;2024-02-16T09:06:36;28.40;;;20.23;;
54945;SDS011;40846;44.788;20.486;2024-02-16T09:09:03;26.50;;;20.60;;
54945;SDS011;40846;44.788;20.486;2024-02-16T09:11:29;30.60;;;20.13;;
54945;SDS011;40846;44.788;20.486;2024-02-16T09:13:55;25.10;;;18.33;;
54945;SDS011;40846;44.788;20.486;2024-02-16T09:16:21;26.98;;;19.13;;
54945;SDS011;40846;44.788;20.486;2024-02-16T09:18:47;31.27;;;21.52;;
54945;SDS011;40846;44.788;20.486;2024-02-16T09:21:15;21.52;;;18.35;;
54945;SDS011;40846;44.788;20.486;2024-02-16T09:23:41;22.05;;;17.33;;
54945;SDS011;40846;44.788;20.486;2024-02-16T09:26:07;26.35;;;19.42;;
54945;SDS011;40846;44.788;20.486;2024-02-16T09:28:38;29.17;;;19.17;;
54945;SDS011;40846;44.788;20.486;2024-02-16T09:31:05;28.45;;;18.70;;
54945;SDS011;40846;44.788;20.486;2024-02-16T09:33:32;29.98;;;20.02;;
54945;SDS011;40846;44.788;20.486;2024-02-16T09:35:58;27.80;;;19.70;;
54945;SDS011;40846;44.788;20.486;2024-02-16T09:38:24;31.42;;;21.25;;
54945;SDS011;40846;44.788;20.486;2024-02-16T09:40:50;21.50;;;17.55;;
54945;SDS011;40846;44.788;20.486;2024-02-16T09:43:26;26.33;;;19.60;;
54945;SDS011;40846;44.788;20.486;2024-02-16T09:45:56;39.50;;;23.95;;
54945;SDS011;40846;44.788;20.486;2024-02-16T09:48:23;44.95;;;26.95;;
54945;SDS011;40846;44.788;20.486;2024-02-16T09:50:50;30.00;;;20.75;;
54945;SDS011;40846;44.788;20.486;2024-02-16T09:53:18;29.05;;;20.58;;
54945;SDS011;40846;44.788;20.486;2024-02-16T09:55:47;34.85;;;29.45;;
54945;SDS011;40846;44.788;20.486;2024-02-16T09:58:14;64.80;;;58.83;;
54945;SDS011;40846;44.788;20.486;2024-02-16T10:00:53;36.67;;;30.20;;
54945;SDS011;40846;44.788;20.486;2024-02-16T10:03:23;45.70;;;41.38;;
54945;SDS011;40846;44.788;20.486;2024-02-16T10:05:51;35.40;;;26.73;;
54945;SDS011;40846;44.788;20.486;2024-02-16T10:08:20;32.58;;;29.10;;
54945;SDS011;40846;44.788;20.486;2024-02-16T10:10:46;36.10;;;32.30;;
54945;SDS011;40846;44.788;20.486;2024-02-16T10:13:15;40.70;;;36.55;;
54945;SDS011;40846;44.788;20.486;2024-02-16T10:15:41;68.03;;;62.05;;
54945;SDS011;40846;44.788;20.486;2024-02-16T10:18:08;44.58;;;40.50;;
54945;SDS011;40846;44.788;20.486;2024-02-16T10:20:34;46.40;;;41.83;;
54945;SDS011;40846;44.788;20.486;2024-02-16T10:23:04;120.90;;;111.93;;
54945;SDS011;40846;44.788;20.486;2024-02-16T10:25:38;64.75;;;59.58;;
54945;SDS011;40846;44.788;20.486;2024-02-16T10:28:10;35.65;;;29.65;;
54945;SDS011;40846;44.788;20.486;2024-02-16T10:30:39;57.33;;;52.47;;
54945;SDS011;40846;44.788;20.486;2024-02-16T10:33:08;44.70;;;35.42;;
54945;SDS011;40846;44.788;20.486;2024-02-16T10:35:37;36.67;;;32.28;;
54945;SDS011;40846;44.788;20.486;2024-02-16T10:38:04;26.60;;;20.48;;
54945;SDS011;40846;44.788;20.486;2024-02-16T10:40:41;23.85;;;17.42;;
54945;SDS011;40846;44.788;20.486;2024-02-16T10:43:07;23.65;;;17.13;;
54945;SDS011;40846;44.788;20.486;2024-02-16T10:45:37;24.60;;;17.65;;
54945;SDS011;40846;44.788;20.486;2024-02-16T10:48:04;28.95;;;17.77;;
54945;SDS011;40846;44.788;20.486;2024-02-16T10:50:34;25.95;;;17.38;;
54945;SDS011;40846;44.788;20.486;2024-02-16T10:53:04;25.83;;;14.77;;
54945;SDS011;40846;44.788;20.486;2024-02-16T10:55:33;26.38;;;16.73;;
54945;SDS011;40846;44.788;20.486;2024-02-16T10:58:00;27.15;;;16.35;;
54945;SDS011;40846;44.788;20.486;2024-02-16T11:00:29;26.83;;;16.63;;
54945;SDS011;40846;44.788;20.486;2024-02-16T11:02:55;25.52;;;15.65;;
54945;SDS011;40846;44.788;20.486;2024-02-16T11:08:02;24.15;;;16.00;;
54945;SDS011;40846;44.788;20.486;2024-02-16T11:10:29;25.48;;;15.57;;
54945;SDS011;40846;44.788;20.486;2024-02-16T11:12:59;24.58;;;14.38;;
54945;SDS011;40846;44.788;20.486;2024-02-16T11:15:32;24.25;;;15.35;;
54945;SDS011;40846;44.788;20.486;2024-02-16T11:18:02;22.23;;;13.23;;
54945;SDS011;40846;44.788;20.486;2024-02-16T11:20:29;13.68;;;8.77;;
54945;SDS011;40846;44.788;20.486;2024-02-16T11:23:13;20.88;;;13.40;;
54945;SDS011;40846;44.788;20.486;2024-02-16T11:25:49;23.13;;;14.18;;
54945;SDS011;40846;44.788;20.486;2024-02-16T11:28:16;19.98;;;12.30;;
54945;SDS011;40846;44.788;20.486;2024-02-16T11:30:43;21.73;;;13.80;;
54945;SDS011;40846;44.788;20.486;2024-02-16T11:33:12;19.27;;;11.25;;
54945;SDS011;40846;44.788;20.486;2024-02-16T11:35:39;24.42;;;13.25;;
54945;SDS011;40846;44.788;20.486;2024-02-16T11:38:05;20.52;;;12.20;;
54945;SDS011;40846;44.788;20.486;2024-02-16T11:40:32;21.88;;;13.80;;
54945;SDS011;40846;44.788;20.486;2024-02-16T11:42:59;21.30;;;14.02;;
54945;SDS011;40846;44.788;20.486;2024-02-16T11:45:25;21.98;;;13.38;;
54945;SDS011;40846;44.788;20.486;2024-02-16T11:48:02;23.75;;;15.07;;
54945;SDS011;40846;44.788;20.486;2024-02-16T11:50:31;25.92;;;13.35;;
54945;SDS011;40846;44.788;20.486;2024-02-16T11:52:57;23.65;;;13.13;;
54945;SDS011;40846;44.788;20.486;2024-02-16T11:55:23;22.10;;;13.35;;
54945;SDS011;40846;44.788;20.486;2024-02-16T11:57:49;23.88;;;12.80;;
54945;SDS011;40846;44.788;20.486;2024-02-16T12:00:15;24.98;;;12.80;;
54945;SDS011;40846;44.788;20.486;2024-02-16T12:02:42;22.30;;;12.98;;
54945;SDS011;40846;44.788;20.486;2024-02-16T12:05:08;25.45;;;13.82;;
54945;SDS011;40846;44.788;20.486;2024-02-16T12:07:37;21.77;;;12.77;;
54945;SDS011;40846;44.788;20.486;2024-02-16T12:10:05;22.25;;;12.90;;
54945;SDS011;40846;44.788;20.486;2024-02-16T12:12:32;21.35;;;13.43;;
54945;SDS011;40846;44.788;20.486;2024-02-16T12:14:58;18.95;;;11.98;;
54945;SDS011;40846;44.788;20.486;2024-02-16T12:17:24;23.08;;;13.00;;
54945;SDS011;40846;44.788;20.486;2024-02-16T12:19:50;18.52;;;11.18;;
54945;SDS011;40846;44.788;20.486;2024-02-16T12:22:17;22.05;;;11.32;;
54945;SDS011;40846;44.788;20.486;2024-02-16T12:24:44;19.33;;;10.60;;
54945;SDS011;40846;44.788;20.486;2024-02-16T12:27:15;18.10;;;10.63;;
54945;SDS011;40846;44.788;20.486;2024-02-16T12:29:41;18.60;;;11.35;;
54945;SDS011;40846;44.788;20.486;2024-02-16T12:32:07;23.60;;;11.85;;
54945;SDS011;40846;44.788;20.486;2024-02-16T12:34:36;20.30;;;10.85;;
54945;SDS011;40846;44.788;20.486;2024-02-16T12:37:06;21.17;;;11.80;;
54945;SDS011;40846;44.788;20.486;2024-02-16T12:39:36;17.83;;;10.98;;
54945;SDS011;40846;44.788;20.486;2024-02-16T12:42:02;21.52;;;10.88;;
54945;SDS011;40846;44.788;20.486;2024-02-16T12:44:29;19.20;;;10.85;;
54945;SDS011;40846;44.788;20.486;2024-02-16T12:46:55;18.40;;;10.52;;
54945;SDS011;40846;44.788;20.486;2024-02-16T12:49:21;19.20;;;9.90;;
54945;SDS011;40846;44.788;20.486;2024-02-16T12:51:48;18.98;;;11.18;;
54945;SDS011;40846;44.788;20.486;2024-02-16T12:54:15;20.70;;;10.02;;
54945;SDS011;40846;44.788;20.486;2024-02-16T12:56:44;19.52;;;11.38;;
54945;SDS011;40846;44.788;20.486;2024-02-16T12:59:11;27.40;;;14.55;;
54945;SDS011;40846;44.788;20.486;2024-02-16T13:01:36;14.57;;;9.65;;
54945;SDS011;40846;44.788;20.486;2024-02-16T13:04:02;17.35;;;9.45;;
54945;SDS011;40846;44.788;20.486;2024-02-16T13:06:29;22.77;;;10.75;;
54945;SDS011;40846;44.788;20.486;2024-02-16T13:08:55;16.48;;;9.25;;
54945;SDS011;40846;44.788;20.486;2024-02-16T13:11:21;20.65;;;10.25;;
54945;SDS011;40846;44.788;20.486;2024-02-16T13:13:46;23.15;;;10.55;;
54945;SDS011;40846;44.788;20.486;2024-02-16T13:16:12;18.08;;;11.43;;
54945;SDS011;40846;44.788;20.486;2024-02-16T13:18:38;15.73;;;9.77;;
54945;SDS011;40846;44.788;20.486;2024-02-16T13:21:04;17.05;;;10.23;;
54945;SDS011;40846;44.788;20.486;2024-02-16T13:23:30;15.30;;;9.30;;
54945;SDS011;40846;44.788;20.486;2024-02-16T13:25:56;18.85;;;10.48;;
54945;SDS011;40846;44.788;20.486;2024-02-16T13:28:22;19.05;;;9.30;;
54945;SDS011;40846;44.788;20.486;2024-02-16T13:30:48;26.98;;;10.65;;
54945;SDS011;40846;44.788;20.486;2024-02-16T13:33:14;15.80;;;8.82;;
54945;SDS011;40846;44.788;20.486;2024-02-16T13:35:40;14.85;;;8.75;;
54945;SDS011;40846;44.788;20.486;2024-02-16T13:38:06;15.15;;;8.43;;
54945;SDS011;40846;44.788;20.486;2024-02-16T13:40:33;13.45;;;8.07;;
54945;SDS011;40846;44.788;20.486;2024-02-16T13:43:01;18.40;;;8.50;;
54945;SDS011;40846;44.788;20.486;2024-02-16T13:45:29;16.60;;;8.50;;
54945;SDS011;40846;44.788;20.486;2024-02-16T13:47:57;17.17;;;8.65;;
54945;SDS011;40846;44.788;20.486;2024-02-16T13:50:23;21.52;;;9.10;;
54945;SDS011;40846;44.788;20.486;2024-02-16T13:52:50;18.90;;;9.05;;
54945;SDS011;40846;44.788;20.486;2024-02-16T13:55:16;20.45;;;9.13;;
54945;SDS011;40846;44.788;20.486;2024-02-16T13:57:42;17.88;;;8.35;;
54945;SDS011;40846;44.788;20.486;2024-02-16T14:00:08;19.88;;;9.48;;
54945;SDS011;40846;44.788;20.486;2024-02-16T14:02:34;16.40;;;9.25;;
54945;SDS011;40846;44.788;20.486;2024-02-16T14:05:00;17.38;;;9.35;;
54945;SDS011;40846;44.788;20.486;2024-02-16T14:07:27;17.92;;;9.20;;
54945;SDS011;40846;44.788;20.486;2024-02-16T14:09:53;17.73;;;9.82;;